createdAt,value
2022-10-09T00:01:32.420Z,100061.60
2022-10-09T00:04:01.485Z,100058.88
2022-10-09T00:06:33.969Z,100059.25
2022-10-09T00:09:04.147Z,100056.84
2022-10-09T00:11:34.196Z,100053.00
2022-10-09T00:14:03.865Z,100049.73
2022-10-09T00:16:32.770Z,100049.61
2022-10-09T00:19:01.423Z,100044.63
2022-10-09T00:21:33.669Z,100046.45
2022-10-09T00:24:03.846Z,100042.72
2022-10-09T00:26:32.851Z,100040.69
2022-10-09T00:29:01.486Z,100039.56
2022-10-09T00:31:30.334Z,100036.04
2022-10-09T00:33:58.853Z,100038.66
2022-10-09T00:36:27.651Z,100040.52
2022-10-09T00:38:56.539Z,100037.96
2022-10-09T00:41:31.880Z,100035.31
2022-10-09T00:44:42.544Z,100035.33
2022-10-09T00:47:40.710Z,100033.88
2022-10-09T00:50:39.713Z,100033.52
2022-10-09T00:53:10.983Z,100031.08
2022-10-09T00:55:40.150Z,100030.96
2022-10-09T00:58:09.756Z,100025.69
2022-10-09T01:00:38.030Z,100022.45
2022-10-09T01:03:06.663Z,100020.96
2022-10-09T01:05:43.991Z,100021.29
2022-10-09T01:08:25.407Z,100020.29
2022-10-09T01:11:09.944Z,100018.17
2022-10-09T01:13:55.021Z,100017.86
2022-10-09T01:16:29.794Z,100023.16
2022-10-09T01:19:53.437Z,100026.73
2022-10-09T01:22:36.482Z,100022.19
2022-10-09T01:25:33.488Z,100023.36
2022-10-09T01:28:04.609Z,100021.94
2022-10-09T01:30:35.421Z,100021.52
2022-10-09T01:33:05.668Z,100019.73
2022-10-09T01:35:35.037Z,100020.77
2022-10-09T01:38:04.758Z,100019.00
2022-10-09T01:40:33.822Z,100021.29
2022-10-09T01:43:02.376Z,100017.95
2022-10-09T01:45:45.882Z,100020.36
2022-10-09T01:48:25.250Z,100024.59
2022-10-09T01:51:02.662Z,100024.29
2022-10-09T01:53:33.683Z,100024.21
2022-10-09T01:56:24.685Z,100019.27
2022-10-09T01:59:01.353Z,100017.81
2022-10-09T02:01:34.357Z,100017.85
2022-10-09T02:04:08.580Z,100016.73
2022-10-09T02:06:40.477Z,100010.44
2022-10-09T02:09:15.759Z,100012.30
2022-10-09T02:11:48.641Z,100013.41
2022-10-09T02:14:17.144Z,100009.39
2022-10-09T02:17:00.349Z,100011.67
2022-10-09T02:19:37.231Z,100014.20
2022-10-09T02:22:18.617Z,100019.38
2022-10-09T02:24:47.776Z,100023.19
2022-10-09T02:27:18.937Z,100026.48
2022-10-09T02:29:48.457Z,100028.42
2022-10-09T02:32:16.959Z,100028.73
2022-10-09T02:34:45.630Z,100026.11
2022-10-09T02:37:15.115Z,100029.44
2022-10-09T02:39:44.020Z,100029.70
2022-10-09T02:42:12.315Z,100031.87
2022-10-09T02:44:40.680Z,100037.48
2022-10-09T02:47:09.118Z,100041.27
2022-10-09T02:49:37.731Z,100050.27
2022-10-09T02:52:06.134Z,100056.10
2022-10-09T02:54:34.515Z,100054.97
2022-10-09T02:57:03.077Z,100057.69
2022-10-09T02:59:32.402Z,100065.54
2022-10-09T03:02:00.886Z,100070.59
2022-10-09T03:04:29.368Z,100065.03
2022-10-09T03:06:58.760Z,100068.20
2022-10-09T03:09:30.295Z,100065.00
2022-10-09T03:12:01.967Z,100068.11
2022-10-09T03:14:30.347Z,100064.47
2022-10-09T03:16:58.827Z,100060.45
2022-10-09T03:19:27.206Z,100063.37
2022-10-09T03:21:55.461Z,100062.41
2022-10-09T03:24:23.898Z,100062.41
2022-10-09T03:26:52.545Z,100055.35
2022-10-09T03:29:21.046Z,100065.21
2022-10-09T03:31:52.870Z,100058.61
2022-10-09T03:34:21.596Z,100066.63
2022-10-09T03:36:50.476Z,100070.32
2022-10-09T03:39:18.840Z,100067.55
2022-10-09T03:41:47.248Z,100070.70
2022-10-09T03:44:15.494Z,100075.10
2022-10-09T03:46:43.835Z,100078.02
2022-10-09T03:49:12.459Z,100076.50
2022-10-09T03:51:40.708Z,100077.55
2022-10-09T03:54:09.215Z,100078.30
2022-10-09T03:56:37.578Z,100073.17
2022-10-09T03:59:07.809Z,100073.59
2022-10-09T04:01:36.709Z,100072.79
2022-10-09T04:04:04.975Z,100072.42
2022-10-09T04:06:33.352Z,100074.80
2022-10-09T04:09:01.941Z,100076.41
2022-10-09T04:11:30.308Z,100073.77
2022-10-09T04:13:58.754Z,100069.97
2022-10-09T04:16:27.245Z,100070.36
2022-10-09T04:18:55.772Z,100072.92
2022-10-09T04:21:24.139Z,100068.80
2022-10-09T04:23:53.016Z,100073.25
2022-10-09T04:26:21.490Z,100078.86
2022-10-09T04:28:50.027Z,100082.34
2022-10-09T04:31:18.507Z,100087.29
2022-10-09T04:33:47.029Z,100088.25
2022-10-09T04:36:15.620Z,100084.11
2022-10-09T04:38:43.900Z,100086.02
2022-10-09T04:41:12.239Z,100087.75
2022-10-09T04:43:42.517Z,100086.45
2022-10-09T04:46:14.306Z,100090.09
2022-10-09T04:48:46.423Z,100092.51
2022-10-09T04:51:16.783Z,100093.42
2022-10-09T04:53:45.692Z,100096.52
2022-10-09T04:56:18.627Z,100098.51
2022-10-09T04:58:48.224Z,100105.05
2022-10-09T05:01:27.492Z,100112.36
2022-10-09T05:03:56.545Z,100109.66
2022-10-09T05:06:25.350Z,100114.94
2022-10-09T05:08:54.517Z,100118.25
2022-10-09T05:11:24.869Z,100117.55
2022-10-09T05:13:56.166Z,100119.56
2022-10-09T05:16:28.455Z,100116.46
2022-10-09T05:18:59.030Z,100110.81
2022-10-09T05:21:28.894Z,100122.56
2022-10-09T05:23:58.068Z,100123.46
2022-10-09T05:26:27.867Z,100123.73
2022-10-09T05:28:56.128Z,100125.69
2022-10-09T05:31:28.133Z,100132.04
2022-10-09T05:34:00.334Z,100130.96
2022-10-09T05:36:29.111Z,100134.94
2022-10-09T05:38:58.376Z,100140.54
2022-10-09T05:41:28.298Z,100139.52
2022-10-09T05:44:02.352Z,100140.93
2022-10-09T05:46:31.240Z,100140.02
2022-10-09T05:49:05.706Z,100140.45
2022-10-09T05:51:37.734Z,100149.19
2022-10-09T05:54:07.149Z,100161.93
2022-10-09T05:56:39.508Z,100164.14
2022-10-09T05:59:15.345Z,100163.61
2022-10-09T06:01:46.930Z,100168.11
2022-10-09T06:04:18.982Z,100175.02
2022-10-09T06:06:49.626Z,100177.05
2022-10-09T06:09:23.150Z,100184.13
2022-10-09T06:11:53.981Z,100184.63
2022-10-09T06:14:23.457Z,100179.75
2022-10-09T06:16:51.901Z,100193.88
2022-10-09T06:19:21.043Z,100193.12
2022-10-09T06:21:49.488Z,100196.31
2022-10-09T06:24:28.852Z,100202.64
2022-10-09T06:26:58.464Z,100201.94
2022-10-09T06:29:26.925Z,100198.07
2022-10-09T06:31:55.536Z,100209.17
2022-10-09T06:34:25.061Z,100213.21
2022-10-09T06:36:53.417Z,100213.83
2022-10-09T06:39:22.795Z,100212.11
2022-10-09T06:41:51.172Z,100219.45
2022-10-09T06:44:31.354Z,100218.79
2022-10-09T06:46:59.825Z,100222.95
2022-10-09T06:49:28.184Z,100221.77
2022-10-09T06:51:56.479Z,100221.56
2022-10-09T06:54:24.897Z,100224.09
2022-10-09T06:56:55.898Z,100225.77
2022-10-09T06:59:24.138Z,100223.11
2022-10-09T07:01:52.789Z,100220.94
2022-10-09T07:04:21.832Z,100224.12
2022-10-09T07:06:50.126Z,100226.00
2022-10-09T07:09:18.597Z,100217.67
2022-10-09T07:11:49.527Z,100228.88
2022-10-09T07:14:18.658Z,100224.27
2022-10-09T07:16:49.273Z,100233.83
2022-10-09T07:19:19.374Z,100233.64
2022-10-09T07:21:49.871Z,100238.02
2022-10-09T07:24:20.751Z,100242.21
2022-10-09T07:26:49.753Z,100239.80
2022-10-09T07:29:20.042Z,100239.44
2022-10-09T07:31:50.044Z,100231.53
2022-10-09T07:34:18.465Z,100229.34
2022-10-09T07:36:46.792Z,100238.02
2022-10-09T07:39:19.523Z,100244.02
2022-10-09T07:41:51.926Z,100244.34
2022-10-09T07:44:20.177Z,100240.33
2022-10-09T07:46:51.681Z,100243.33
2022-10-09T07:49:20.366Z,100244.78
2022-10-09T07:51:48.663Z,100244.65
2022-10-09T07:54:17.046Z,100251.27
2022-10-09T07:56:45.338Z,100255.27
2022-10-09T07:59:16.161Z,100255.88
2022-10-09T08:01:44.762Z,100253.51
2022-10-09T08:04:13.140Z,100257.38
2022-10-09T08:06:41.831Z,100250.00
2022-10-09T08:09:10.323Z,100247.97
2022-10-09T08:11:41.915Z,100242.07
2022-10-09T08:14:18.183Z,100242.09
2022-10-09T08:16:48.651Z,100237.48
2022-10-09T08:19:16.908Z,100238.20
2022-10-09T08:21:45.590Z,100239.60
2022-10-09T08:24:14.203Z,100239.92
2022-10-09T08:26:44.306Z,100241.71
2022-10-09T08:29:14.195Z,100238.96
2022-10-09T08:31:42.740Z,100234.80
2022-10-09T08:34:12.253Z,100239.31
2022-10-09T08:36:40.463Z,100237.48
2022-10-09T08:39:08.753Z,100240.56
2022-10-09T08:41:52.362Z,100235.30
2022-10-09T08:44:40.106Z,100230.86
2022-10-09T08:47:37.142Z,100224.30
2022-10-09T08:50:23.339Z,100226.24
2022-10-09T08:53:03.730Z,100223.50
2022-10-09T08:55:41.678Z,100217.57
2022-10-09T08:58:15.855Z,100219.42
2022-10-09T09:00:50.540Z,100222.52
2022-10-09T09:03:36.812Z,100226.20
2022-10-09T09:06:33.012Z,100225.48
2022-10-09T09:09:10.356Z,100222.16
2022-10-09T09:12:15.169Z,100224.69
2022-10-09T09:15:22.031Z,100219.20
2022-10-09T09:18:04.541Z,100216.23
2022-10-09T09:20:56.646Z,100214.83
2022-10-09T09:23:40.741Z,100217.09
2022-10-09T09:26:27.508Z,100218.11
2022-10-09T09:29:02.656Z,100216.02
2022-10-09T09:31:37.351Z,100215.30
2022-10-09T09:34:44.521Z,100217.83
2022-10-09T09:37:13.747Z,100222.56
2022-10-09T09:42:31.702Z,100224.36
2022-10-09T09:45:04.963Z,100221.48
2022-10-09T09:47:47.017Z,100214.23
2022-10-09T09:50:42.230Z,100217.95
2022-10-09T09:53:37.014Z,100219.83
2022-10-09T09:56:06.054Z,100228.50
2022-10-09T09:58:38.717Z,100230.30
2022-10-09T10:01:21.930Z,100232.47
2022-10-09T10:03:54.715Z,100230.41
2022-10-09T10:06:44.733Z,100233.73
2022-10-09T10:09:19.298Z,100232.58
2022-10-09T10:12:03.611Z,100229.59
2022-10-09T10:14:34.262Z,100226.13
2022-10-09T10:17:02.683Z,100231.77
2022-10-09T10:19:35.753Z,100228.96
2022-10-09T10:22:21.938Z,100234.94
2022-10-09T10:24:52.597Z,100237.90
2022-10-09T10:27:41.014Z,100233.78
2022-10-09T10:30:16.059Z,100235.27
2022-10-09T10:33:17.397Z,100232.21
2022-10-09T10:35:49.787Z,100224.52
2022-10-09T10:38:31.263Z,100223.46
2022-10-09T10:41:36.705Z,100217.17
2022-10-09T10:44:26.297Z,100218.62
2022-10-09T10:47:04.021Z,100217.33
2022-10-09T10:49:33.927Z,100218.78
2022-10-09T10:52:23.465Z,100218.41
2022-10-09T10:55:11.640Z,100215.46
2022-10-09T10:58:06.405Z,100214.77
2022-10-09T11:00:44.135Z,100206.24
2022-10-09T11:03:52.840Z,100209.66
2022-10-09T11:06:28.994Z,100202.82
2022-10-09T11:09:07.369Z,100204.26
2022-10-09T11:11:50.745Z,100198.69
2022-10-09T11:14:43.026Z,100206.86
2022-10-09T11:17:26.818Z,100200.73
2022-10-09T11:20:27.770Z,100196.73
2022-10-09T11:23:42.043Z,100195.44
2022-10-09T11:26:36.955Z,100189.68
2022-10-09T11:29:18.394Z,100189.23
2022-10-09T11:31:57.185Z,100191.06
2022-10-09T11:34:33.927Z,100189.28
2022-10-09T11:37:07.218Z,100195.15
2022-10-09T11:39:37.683Z,100193.48
2022-10-09T11:42:07.177Z,100196.45
2022-10-09T11:44:40.772Z,100193.80
2022-10-09T11:47:30.121Z,100190.06
2022-10-09T11:50:37.786Z,100202.92
2022-10-09T11:53:19.776Z,100202.13
2022-10-09T11:55:48.774Z,100208.05
2022-10-09T11:58:20.241Z,100209.73
2022-10-09T12:00:55.452Z,100216.64
2022-10-09T12:03:34.287Z,100214.77
2022-10-09T12:06:17.116Z,100223.23
2022-10-09T12:09:06.272Z,100229.64
2022-10-09T12:11:35.037Z,100228.77
2022-10-09T12:14:08.487Z,100237.13
2022-10-09T12:16:46.086Z,100235.20
2022-10-09T12:19:31.543Z,100238.98
2022-10-09T12:22:01.161Z,100239.69
2022-10-09T12:24:48.371Z,100247.77
2022-10-09T12:27:26.986Z,100251.52
2022-10-09T12:30:05.321Z,100257.34
2022-10-09T12:32:39.361Z,100268.11
2022-10-09T12:35:47.986Z,100267.56
2022-10-09T12:38:34.229Z,100265.73
2022-10-09T12:41:07.273Z,100264.55
2022-10-09T12:43:36.545Z,100280.85
2022-10-09T12:46:04.930Z,100273.27
2022-10-09T12:48:40.646Z,100283.86
2022-10-09T12:51:17.407Z,100292.22
2022-10-09T12:53:49.199Z,100298.95
2022-10-09T12:56:24.734Z,100298.97
2022-10-09T12:58:53.920Z,100298.43
2022-10-09T13:01:22.820Z,100301.51
2022-10-09T13:04:05.885Z,100306.98
2022-10-09T13:06:48.140Z,100300.57
2022-10-09T13:09:35.152Z,100302.80
2022-10-09T13:12:27.756Z,100306.07
2022-10-09T13:15:06.210Z,100298.20
2022-10-09T13:17:41.803Z,100297.13
2022-10-09T13:20:13.014Z,100300.46
2022-10-09T13:22:42.344Z,100299.34
2022-10-09T13:25:10.630Z,100301.15
2022-10-09T13:27:40.130Z,100302.61
2022-10-09T13:30:12.156Z,100305.27
2022-10-09T13:32:40.530Z,100303.88
2022-10-09T13:35:09.543Z,100307.73
2022-10-09T13:37:37.813Z,100317.96
2022-10-09T13:40:07.018Z,100341.23
2022-10-09T13:42:37.352Z,100331.16
2022-10-09T13:45:06.819Z,100330.02
2022-10-09T13:47:35.094Z,100330.66
2022-10-09T13:50:04.551Z,100330.27
2022-10-09T13:52:32.909Z,100336.11
2022-10-09T13:55:01.346Z,100336.52
2022-10-09T13:57:29.740Z,100341.09
2022-10-09T13:59:57.994Z,100340.70
2022-10-09T14:02:26.589Z,100340.52
2022-10-09T14:04:54.955Z,100336.16
2022-10-09T14:07:23.651Z,100341.55
2022-10-09T14:09:52.040Z,100338.45
2022-10-09T14:12:20.306Z,100344.47
2022-10-09T14:14:48.772Z,100339.59
2022-10-09T14:17:16.883Z,100345.21
2022-10-09T14:19:45.249Z,100337.67
2022-10-09T14:22:13.701Z,100341.41
2022-10-09T14:24:42.698Z,100345.05
2022-10-09T14:27:11.210Z,100342.59
2022-10-09T14:29:39.785Z,100337.91
2022-10-09T14:32:08.178Z,100340.02
2022-10-09T14:34:36.402Z,100349.36
2022-10-09T14:37:13.610Z,100351.48
2022-10-09T14:39:47.634Z,100357.86
2022-10-09T14:42:15.931Z,100355.28
2022-10-09T14:44:44.302Z,100356.36
2022-10-09T14:47:12.644Z,100357.89
2022-10-09T14:49:40.944Z,100354.63
2022-10-09T14:52:09.182Z,100352.23
2022-10-09T14:54:37.838Z,100366.73
2022-10-09T14:57:06.286Z,100365.86
2022-10-09T14:59:34.548Z,100371.23
2022-10-09T15:02:02.936Z,100368.59
2022-10-09T15:04:31.418Z,100361.94
2022-10-09T15:06:59.900Z,100370.14
2022-10-09T15:09:28.142Z,100372.40
2022-10-09T15:11:57.361Z,100379.13
2022-10-09T15:14:25.858Z,100378.84
2022-10-09T15:16:54.117Z,100374.32
2022-10-09T15:19:22.372Z,100380.02
2022-10-09T15:21:51.080Z,100377.61
2022-10-09T15:24:19.338Z,100386.16
2022-10-09T15:26:47.643Z,100384.11
2022-10-09T15:29:16.013Z,100385.55
2022-10-09T15:31:44.281Z,100383.98
2022-10-09T15:34:18.718Z,100383.97
2022-10-09T15:36:47.342Z,100393.07
2022-10-09T15:39:15.743Z,100403.13
2022-10-09T15:41:44.375Z,100413.45
2022-10-09T15:44:20.822Z,100424.28
2022-10-09T15:46:50.279Z,100426.33
2022-10-09T15:49:18.776Z,100430.54
2022-10-09T15:51:47.100Z,100440.92
2022-10-09T15:54:15.761Z,100446.50
2022-10-09T15:56:44.058Z,100441.69
2022-10-09T15:59:14.277Z,100445.80
2022-10-09T16:01:44.003Z,100453.35
2022-10-09T16:04:12.432Z,100452.58
2022-10-09T16:06:40.741Z,100460.91
2022-10-09T16:09:09.309Z,100460.47
2022-10-09T16:11:37.663Z,100470.60
2022-10-09T16:14:06.042Z,100468.55
2022-10-09T16:16:34.358Z,100472.43
2022-10-09T16:19:05.266Z,100473.88
2022-10-09T16:21:34.195Z,100467.42
2022-10-09T16:24:02.534Z,100473.39
2022-10-09T16:26:30.924Z,100478.17
2022-10-09T16:29:00.912Z,100482.41
2022-10-09T16:31:35.303Z,100483.09
2022-10-09T16:34:07.138Z,100488.39
2022-10-09T16:36:35.517Z,100493.36
2022-10-09T16:39:04.082Z,100498.22
2022-10-09T16:41:32.581Z,100501.28
2022-10-09T16:44:03.089Z,100504.25
2022-10-09T16:49:15.224Z,100511.83
2022-10-09T16:51:44.972Z,100514.18
2022-10-09T16:54:13.240Z,100518.75
2022-10-09T16:56:41.877Z,100523.63
2022-10-09T16:59:13.645Z,100523.70
2022-10-09T17:01:46.206Z,100523.86
2022-10-09T17:04:15.104Z,100531.52
2022-10-09T17:06:44.697Z,100529.20
2022-10-09T17:09:14.636Z,100533.45
2022-10-09T17:11:43.436Z,100534.54
2022-10-09T17:14:12.505Z,100536.04
2022-10-09T17:16:43.019Z,100539.50
2022-10-09T17:19:11.824Z,100547.77
2022-10-09T17:21:40.225Z,100542.11
2022-10-09T17:24:09.270Z,100543.66
2022-10-09T17:26:37.684Z,100545.80
2022-10-09T17:29:06.065Z,100547.02
2022-10-09T17:31:35.017Z,100547.23
2022-10-09T17:34:05.085Z,100547.29
2022-10-09T17:36:37.210Z,100546.04
2022-10-09T17:39:08.992Z,100548.03
2022-10-09T17:41:37.350Z,100550.56
2022-10-09T17:44:06.612Z,100551.87
2022-10-09T17:46:34.961Z,100556.48
2022-10-09T17:49:04.419Z,100555.48
2022-10-09T17:51:37.134Z,100558.43
2022-10-09T17:54:13.702Z,100554.52
2022-10-09T17:56:43.108Z,100560.33
2022-10-09T17:59:12.505Z,100558.84
2022-10-09T18:01:40.810Z,100558.52
2022-10-09T18:04:15.605Z,100556.30
2022-10-09T18:06:44.299Z,100557.88
2022-10-09T18:09:12.624Z,100557.64
2022-10-09T18:11:40.890Z,100558.88
2022-10-09T18:14:10.054Z,100562.73
2022-10-09T18:16:39.786Z,100569.22
2022-10-09T18:19:13.782Z,100566.66
2022-10-09T18:21:45.723Z,100568.04
2022-10-09T18:24:15.330Z,100574.36
2022-10-09T18:26:44.689Z,100576.79
2022-10-09T18:29:13.322Z,100580.98
2022-10-09T18:31:41.900Z,100581.02
2022-10-09T18:34:11.002Z,100588.09
2022-10-09T18:36:39.684Z,100589.61
2022-10-09T18:39:12.381Z,100590.29
2022-10-09T18:41:41.758Z,100590.86
2022-10-09T18:44:17.629Z,100588.12
2022-10-09T18:46:55.760Z,100598.27
2022-10-09T18:49:30.550Z,100604.60
2022-10-09T18:52:02.866Z,100607.96
2022-10-09T18:54:31.607Z,100609.73
2022-10-09T18:57:00.014Z,100616.43
2022-10-09T18:59:29.615Z,100621.70
2022-10-09T19:01:57.993Z,100630.13
2022-10-09T19:04:26.371Z,100633.27
2022-10-09T19:06:55.002Z,100635.45
2022-10-09T19:09:23.250Z,100639.68
2022-10-09T19:11:52.818Z,100642.88
2022-10-09T19:14:21.615Z,100647.17
2022-10-09T19:16:49.903Z,100653.06
2022-10-09T19:19:19.172Z,100654.00
2022-10-09T19:21:47.586Z,100654.48
2022-10-09T19:24:15.943Z,100654.23
2022-10-09T19:26:44.326Z,100660.56
2022-10-09T19:29:12.659Z,100663.86
2022-10-09T19:31:41.148Z,100665.64
2022-10-09T19:34:09.392Z,100670.96
2022-10-09T19:36:37.817Z,100670.39
2022-10-09T19:39:08.875Z,100676.34
2022-10-09T19:41:39.010Z,100672.80
2022-10-09T19:44:07.384Z,100678.77
2022-10-09T19:46:40.045Z,100679.39
2022-10-09T19:49:09.559Z,100682.55
2022-10-09T19:51:38.150Z,100687.44
2022-10-09T19:54:08.662Z,100686.46
2022-10-09T19:56:38.184Z,100688.42
2022-10-09T19:59:08.690Z,100688.91
2022-10-09T20:01:40.235Z,100689.41
2022-10-09T20:04:10.989Z,100692.65
2022-10-09T20:06:41.750Z,100693.31
2022-10-09T20:09:12.367Z,100694.43
2022-10-09T20:11:41.197Z,100689.63
2022-10-09T20:14:10.053Z,100690.30
2022-10-09T20:16:39.089Z,100695.23
2022-10-09T20:19:07.521Z,100695.06
2022-10-09T20:21:35.898Z,100699.15
2022-10-09T20:24:06.312Z,100696.37
2022-10-09T20:26:36.794Z,100693.51
2022-10-09T20:29:07.594Z,100691.15
2022-10-09T20:31:35.967Z,100698.17
2022-10-09T20:34:04.651Z,100705.01
2022-10-09T20:36:35.890Z,100713.89
2022-10-09T20:39:08.975Z,100712.23
2022-10-09T20:41:40.617Z,100710.02
2022-10-09T20:44:11.071Z,100702.36
2022-10-09T20:46:40.709Z,100713.46
2022-10-09T20:49:14.016Z,100720.14
2022-10-09T20:51:42.657Z,100722.96
2022-10-09T20:54:17.972Z,100724.58
2022-10-09T20:56:47.296Z,100729.83
2022-10-09T20:59:16.911Z,100730.66
2022-10-09T21:01:45.838Z,100733.64
2022-10-09T21:04:15.002Z,100726.42
2022-10-09T21:06:43.261Z,100727.14
2022-10-09T21:09:11.748Z,100729.23
2022-10-09T21:11:41.672Z,100732.04
2022-10-09T21:14:10.123Z,100729.02
2022-10-09T21:16:38.727Z,100726.73
2022-10-09T21:19:07.148Z,100726.38
2022-10-09T21:21:35.358Z,100728.08
2022-10-09T21:24:04.583Z,100731.83
2022-10-09T21:26:36.382Z,100733.31
2022-10-09T21:29:05.497Z,100732.27
2022-10-09T21:31:34.377Z,100735.59
2022-10-09T21:34:02.942Z,100740.85
2022-10-09T21:37:08.490Z,100739.23
2022-10-09T21:39:31.757Z,100741.66
2022-10-09T21:42:00.193Z,100747.36
2022-10-09T21:44:28.672Z,100748.33
2022-10-09T21:46:57.052Z,100754.32
2022-10-09T21:49:28.309Z,100751.02
2022-10-09T21:51:57.125Z,100752.09
2022-10-09T21:54:25.564Z,100753.04
2022-10-09T21:56:53.887Z,100756.86
2022-10-09T21:59:22.430Z,100756.73
2022-10-09T22:01:50.599Z,100755.64
2022-10-09T22:04:19.590Z,100762.23
2022-10-09T22:06:47.854Z,100764.09
2022-10-09T22:09:16.230Z,100767.73
2022-10-09T22:11:45.149Z,100770.04
2022-10-09T22:14:14.161Z,100770.12
2022-10-09T22:16:42.508Z,100772.77
2022-10-09T22:19:10.987Z,100768.71
2022-10-09T22:21:39.718Z,100765.66
2022-10-09T22:24:08.347Z,100772.91
2022-10-09T22:26:36.738Z,100777.96
2022-10-09T22:29:05.033Z,100777.61
2022-10-09T22:31:33.433Z,100777.65
2022-10-09T22:34:02.262Z,100775.82
2022-10-09T22:36:33.147Z,100779.48
2022-10-09T22:39:05.221Z,100781.39
2022-10-09T22:41:34.529Z,100789.43
2022-10-09T22:44:06.034Z,100791.91
2022-10-09T22:46:41.417Z,100795.70
2022-10-09T22:49:14.842Z,100793.00
2022-10-09T22:51:44.792Z,100797.66
2022-10-09T22:54:14.020Z,100801.15
2022-10-09T22:56:45.422Z,100800.45
2022-10-09T22:59:18.230Z,100804.34
2022-10-09T23:01:57.137Z,100801.60
2022-10-09T23:04:25.500Z,100799.81
2022-10-09T23:06:59.617Z,100804.52
2022-10-09T23:09:31.683Z,100804.27
2022-10-09T23:12:00.489Z,100804.64
2022-10-09T23:14:29.072Z,100806.24
2022-10-09T23:16:57.446Z,100802.33
2022-10-09T23:19:25.829Z,100803.50
2022-10-09T23:21:54.103Z,100808.85
2022-10-09T23:24:22.486Z,100811.56
2022-10-09T23:26:52.087Z,100812.30
2022-10-09T23:29:22.037Z,100814.09
2022-10-09T23:31:53.601Z,100814.19
2022-10-09T23:34:21.940Z,100815.41
2022-10-09T23:36:50.209Z,100817.70
2022-10-09T23:39:19.816Z,100821.30
2022-10-09T23:41:48.057Z,100822.92
2022-10-09T23:44:20.082Z,100826.86
2022-10-09T23:46:52.019Z,100827.31
2022-10-09T23:49:20.489Z,100829.64
2022-10-09T23:51:48.861Z,100830.71
2022-10-09T23:54:17.245Z,100824.99
2022-10-09T23:56:45.825Z,100826.27
2022-10-09T23:59:14.114Z,100829.52
